METAR Data
IDs: Format: Raw Decoded Include TAF

Data at: 0525 UTC 19 Aug 2019

KCDA 190516Z AUTO 14005KT 10SM SCT060 SCT085 BKN110 19/18 A2996 RMK AO2 T01930184
KCDA 190457Z AUTO 15003KT 10SM SCT048 SCT060 BKN085 20/18 A2996 RMK AO2 T01950183 402630167
KCDA 190436Z AUTO 00000KT 5SM RA SCT045 BKN065 BKN090 19/18 A2997 RMK AO2 T01900181
KCDA 190416Z AUTO 00000KT 10SM SCT090 19/18 A2996 RMK AO2 T01900181
KCDA 190356Z AUTO 00000KT 10SM SCT038 BKN065 BKN100 19/18 A2997 RMK AO2 T01920181
KCDA 190337Z AUTO 00000KT 10SM SCT038 BKN065 OVC100 20/18 A2997 RMK AO2 T01990182
KCDA 190315Z AUTO 00000KT 10SM SCT065 OVC090 20/18 A2998 RMK AO2 T02000184
KCDA 190256Z AUTO 00000KT 10SM SCT080 BKN100 20/18 A2998 RMK AO2 T02000183
KCDA 190236Z AUTO 00000KT 10SM BKN110 20/18 A2999 RMK AO2 T02000183
KCDA 190217Z AUTO 00000KT 10SM CLR 20/18 A2999 RMK AO2 T01980182
KCDA 190156Z AUTO 00000KT 10SM SCT075 21/18 A2999 RMK AO2 T02050182
KCDA 190136Z AUTO 00000KT 10SM SCT075 21/18 A2999 RMK AO2 T02100180
KCDA 190116Z AUTO 00000KT 10SM CLR 22/18 A3000 RMK AO2 T02150180
KCDA 190057Z AUTO 00000KT 10SM CLR 23/18 A2999 RMK AO2 T02260182
KCDA 190036Z AUTO 00000KT 10SM CLR 22/18 A2999 RMK AO2 T02210178
KCDA 190016Z AUTO 00000KT 10SM CLR 22/18 A2999 RMK AO2 T02210180
KCDA 182356Z AUTO 00000KT 10SM CLR 23/18 A3000 RMK AO2 T02330178 10263 20233
KCDA 182337Z AUTO 11003KT 10SM SCT080 24/18 A3000 RMK AO2 T02380178
KCDA 182316Z AUTO 00000KT 10SM CLR 24/18 A3000 RMK AO2 T02400179
KCDA 182256Z AUTO 00000KT 10SM CLR 24/18 A3001 RMK AO2 T02420178
KCDA 182236Z AUTO 14004KT 10SM CLR 25/18 A3001 RMK AO2 T02480178
KCDA 182217Z AUTO 14006KT 10SM CLR 26/18 A3001 RMK AO2 T02550175
KCDA 182156Z AUTO 13003KT 10SM CLR 25/18 A3001 RMK AO2 T02510178
KCDA 182136Z AUTO 16004KT 10SM SCT049 SCT060 26/18 A3001 RMK AO2 T02580177
KCDA 182116Z AUTO 15005KT 10SM SCT043 SCT049 25/17 A3001 RMK AO2 T02520172
KCDA 182057Z AUTO 11004KT 10SM SCT046 SCT049 26/17 A3001 RMK AO2 T02600172
KCDA 182036Z AUTO 00000KT 10SM CLR 26/17 A3002 RMK AO2 T02600173
KCDA 182017Z AUTO 18005KT 10SM CLR 26/18 A3002 RMK AO2 T02570177
KCDA 181956Z AUTO 11005KT 10SM SCT040 26/18 A3003 RMK AO2 T02600176
KCDA 181937Z AUTO 13003KT 10SM CLR 26/18 A3004 RMK AO2 T02580180
KCDA 181916Z AUTO 00000KT 10SM SCT029 SCT065 26/18 A3004 RMK AO2 T02610180
KCDA 181856Z AUTO 17005KT 10SM SCT029 SCT039 BKN065 26/18 A3005 RMK AO2 T02550179
KCDA 181836Z AUTO 13005KT 10SM SCT029 BKN041 BKN049 25/18 A3005 RMK AO2 T02530179
KCDA 181817Z AUTO 21003KT 10SM SCT027 SCT042 BKN050 24/17 A3005 RMK AO2 T02440173
KCDA 181756Z AUTO 10003KT 10SM SCT033 SCT040 BKN047 24/17 A3005 RMK AO2 T02400174 10244 20175
KCDA 181737Z AUTO 13005KT 10SM SCT023 BKN033 BKN042 24/18 A3004 RMK AO2 T02390179
KCDA 181715Z AUTO 17003KT 10SM SCT021 SCT028 BKN044 23/18 A3004 RMK AO2 T02340178
KCDA 181658Z AUTO 14005KT 10SM SCT021 SCT028 BKN042 24/19 A3004 RMK AO2 T02350185
KCDA 181636Z AUTO 00000KT 10SM SCT016 SCT032 SCT042 23/18 A3005 RMK AO2 T02290182
KCDA 181617Z AUTO 00000KT 10SM SCT014 SCT046 23/18 A3005 RMK AO2 T02280179
KCDA 181556Z AUTO 00000KT 10SM SCT014 BKN044 22/18 A3006 RMK AO2 T02160178
KCDA 181538Z AUTO 15004KT 10SM BKN014 OVC044 22/18 A3007 RMK AO2 T02190183
KCDA 181516Z AUTO 11003KT 10SM BKN012 BKN046 21/18 A3007 RMK AO2 T02100177
KCDA 181457Z AUTO 00000KT 10SM SCT010 SCT046 21/17 A3008 RMK AO2 T02050174
KCDA 181436Z AUTO 00000KT 10SM BKN010 20/17 A3008 RMK AO2 T02000173
KCDA 181418Z AUTO 00000KT 10SM OVC010 19/18 A3010 RMK AO2 T01890184
KCDA 181356Z AUTO 00000KT 10SM OVC007 18/18 A3005 RMK AO2 T01820177
KCDA 181337Z AUTO 00000KT 10SM OVC007 18/18 RMK AO2 T01810176
KCDA 181316Z AUTO 00000KT 10SM OVC005 18/18 A3002 RMK AO2 T01800175
KCDA 181258Z AUTO 00000KT 10SM OVC002 18/18 A3004 RMK AO2 T01800175
KCDA 181236Z AUTO 00000KT 1SM BR OVC002 18/17 RMK AO2 T01760171
KCDA 181217Z AUTO 17003KT 3/4SM BR BKN002 OVC010 18/17 RMK AO2 T01750170
KCDA 181156Z AUTO 00000KT 1/2SM FG BKN002 OVC010 17/17 A2998 RMK AO2 T01740170 10177 20167
KCDA 181138Z AUTO 00000KT M1/4SM FG OVC002 17/17 A2996 RMK AO2 T01710167
KCDA 181116Z AUTO 00000KT M1/4SM FG OVC002 17/17 A2995 RMK AO2 T01700166
KCDA 181057Z AUTO 00000KT M1/4SM FG OVC002 17/17 A2991 RMK AO2 T01700165
KCDA 181036Z AUTO 00000KT M1/4SM FG OVC002 17/17 A2989 RMK AO2 T01700165
KCDA 181018Z AUTO 00000KT 1/4SM FG OVC002 17/16 A2985 RMK AO2 T01690164
KCDA 180956Z AUTO 00000KT 1/2SM FG BKN002 OVC046 17/17 A2985 RMK AO2 T01700165
KCDA 180937Z AUTO 00000KT 1/2SM FG SCT002 OVC014 17/17 A2986 RMK AO2 T01710167
KCDA 180916Z AUTO 00000KT 3SM BR SCT002 OVC014 17/17 A2989 RMK AO2 T01730170
KCDA 180858Z AUTO 00000KT 7SM OVC005 17/17 A2990 RMK AO2 T01730170
KCDA 180836Z AUTO 00000KT 7SM OVC005 17/17 A2989 RMK AO2 T01720168
KCDA 180817Z AUTO 00000KT 1 1/4SM BR OVC005 17/17 A2989 RMK AO2 VIS 1/2V5 T01730170
KCDA 180756Z AUTO 00000KT 10SM SCT003 OVC010 17/17 A2989 RMK AO2 T01740170
KCDA 180738Z AUTO 00000KT 5SM BR SCT003 OVC010 18/17 A2989 RMK AO2 T01750170
KCDA 180716Z AUTO 00000KT 5SM BR SCT003 SCT007 OVC010 17/17 A2987 RMK AO2 T01740170
KCDA 180657Z AUTO 00000KT 5SM BR SCT003 SCT010 SCT050 17/17 A2986 RMK AO2 T01710167
KCDA 180636Z AUTO 00000KT 5SM BR SCT010 BKN055 17/17 A2987 RMK AO2 T01730170
KCDA 180618Z AUTO 00000KT 10SM BKN008 OVC055 18/17 A2991 RMK AO2 T01760172
KCDA 180556Z AUTO 00000KT 2 1/2SM BR SCT002 OVC006 18/17 A2992 RMK AO2 VIS 1V5 T01760172 10196 20170
KCDA 180537Z AUTO 00000KT 1/4SM FG OVC002 18/17 A2990 RMK AO2 T01750171
KCDA 180516Z AUTO 00000KT 1SM BR BKN002 BKN007 OVC060 17/17 A2986 RMK AO2 T01730168
KCDA 180458Z AUTO 00000KT 5SM BR SCT009 SCT014 BKN060 17/17 A2985 RMK AO2 T01700165 402570170
KCDA 180436Z AUTO 00000KT 7SM SCT005 BKN009 BKN016 18/17 A2987 RMK AO2 T01750167
KCDA 180417Z AUTO 00000KT 10SM SCT009 SCT014 BKN030 18/17 A2986 RMK AO2 T01750166
KCDA 180356Z AUTO 11003KT 10SM SCT013 SCT030 18/17 A2985 RMK AO2 T01750166
KCDA 180338Z AUTO 15003KT 10SM CLR 18/17 A2984 RMK AO2 T01750165
KCDA 180316Z AUTO 00000KT 10SM SCT070 18/17 A2985 RMK AO2 T01750167
KCDA 180259Z AUTO 00000KT 10SM SCT060 18/17 A2987 RMK AO2 T01770170
KCDA 180236Z AUTO 00000KT 10SM SCT060 BKN090 18/17 A2987 RMK AO2 T01800171
KCDA 180219Z AUTO 00000KT 10SM BKN090 18/17 A2987 RMK AO2 T01800171
KCDA 180156Z AUTO 12004KT 10SM -RA SCT002 BKN090 OVC110 18/17 A2987 RMK AO2 T01800174
KCDA 180139Z AUTO 00000KT 1 1/4SM BR BKN002 BKN025 OVC110 19/18 A2990 RMK AO2 T01850180
KCDA 180116Z AUTO 10003KT 5SM -RA SCT002 BKN020 OVC035 19/18 A2989 RMK AO2 T01870181
KCDA 180100Z AUTO 10007KT 3SM RA SCT002 BKN035 OVC043 19/18 A2993 RMK AO2 T01900181
KCDA 180035Z AUTO 12004KT 7SM RA BKN031 OVC036 19/18 A2993 RMK AO2 T01930183
KCDA 180019Z AUTO 00000KT 5SM RA BKN036 OVC043 19/18 A2992 RMK AO2 T01940180
KCDA 172356Z AUTO 00000KT 10SM RA SCT040 SCT045 BKN110 20/18 A2991 RMK AO2 T01980181 10257 20198
KCDA 172340Z AUTO 14004KT 10SM SCT110 20/19 A2991 RMK AO2 T02000187
KCDA 172315Z AUTO 12005KT 10SM CLR 20/19 A2991 RMK AO2 T02010190
KCDA 172300Z AUTO 11004KT 10SM -RA SCT041 SCT055 SCT080 20/19 A2989 RMK AO2 T02020189
KCDA 172236Z AUTO 14007KT 10SM -RA SCT034 SCT047 SCT120 21/18 RMK AO2 T02100182
KCDA 172220Z AUTO 12005KT 10SM SCT032 SCT045 21/20 RMK AO2 T02130195
KCDA 172155Z AUTO 00000KT 7SM -RA SCT011 SCT017 BKN028 22/19 A2996 RMK AO2 T02150191
KCDA 172139Z AUTO 00000KT 2SM RA SCT011 BKN020 OVC035 21/19 A2994 RMK AO2 T02100190
KCDA 172115Z AUTO 15005KT 10SM BKN034 BKN050 BKN070 25/19 A3000 RMK AO2 T02480192
KCDA 172100Z AUTO 00000KT 10SM BKN034 BKN040 BKN048 25/20 A2999 RMK AO2 T02500195
KCDA 172036Z AUTO 23003KT 10SM SCT019 BKN034 OVC090 25/19 A3000 RMK AO2 T02470188
KCDA 172016Z AUTO 15006KT 10SM BKN034 BKN042 BKN050 25/18 A3001 RMK AO2 T02480184
KCDA 171956Z AUTO 14007KT 10SM SCT033 SCT045 SCT070 25/18 A3001 RMK AO2 T02500183
KCDA 171936Z AUTO 13006KT 10SM CLR 25/18 A3001 RMK AO2 T02500183
KCDA 171916Z AUTO 15006KT 10SM SCT030 SCT036 25/19 A3002 RMK AO2 T02530186
KCDA 171856Z AUTO 12006KT 10SM SCT030 SCT036 25/19 A3003 RMK AO2 T02480185
KCDA 171836Z AUTO 11008KT 10SM CLR 26/19 A3004 RMK AO2 T02570190
KCDA 171816Z AUTO 11008KT 10SM SCT022 25/19 A3005 RMK AO2 T02480192
KCDA 171756Z AUTO 14006KT 10SM BKN022 24/19 A3005 RMK AO2 T02440191 10244 20180
KCDA 171736Z AUTO 13004KT 10SM BKN020 24/19 A3005 RMK AO2 T02370190